sensor_id;sensor_type;location;lat;lon;timestamp;pressure;altitude;pressure_sealevel;temperature;humidity
60719;BME280;46567;51.660;5.824;2023-02-11T00:02:58;103350.0;;;8.2;86.0
60719;BME280;46567;51.660;5.824;2023-02-11T00:07:58;103350.0;;;8.2;86.0
60719;BME280;46567;51.660;5.824;2023-02-11T00:12:58;103330.0;;;8.2;86.0
60719;BME280;46567;51.660;5.824;2023-02-11T00:17:57;103330.0;;;8.2;86.0
60719;BME280;46567;51.660;5.824;2023-02-11T00:22:57;103330.0;;;8.2;86.0
60719;BME280;46567;51.660;5.824;2023-02-11T00:27:58;103350.0;;;8.2;86.0
60719;BME280;46567;51.660;5.824;2023-02-11T00:32:58;103330.0;;;8.2;86.0
60719;BME280;46567;51.660;5.824;2023-02-11T00:37:57;103330.0;;;8.2;86.0
60719;BME280;46567;51.660;5.824;2023-02-11T00:42:58;103320.0;;;8.2;86.0
60719;BME280;46567;51.660;5.824;2023-02-11T00:47:58;103330.0;;;8.2;86.0
60719;BME280;46567;51.660;5.824;2023-02-11T00:52:57;103320.0;;;8.2;85.5
60719;BME280;46567;51.660;5.824;2023-02-11T00:57:58;103330.0;;;8.2;85.5
60719;BME280;46567;51.660;5.824;2023-02-11T01:02:58;103340.0;;;8.2;85.5
60719;BME280;46567;51.660;5.824;2023-02-11T01:07:58;103340.0;;;8.2;85.5
60719;BME280;46567;51.660;5.824;2023-02-11T01:12:57;103340.0;;;8.2;85.5
60719;BME280;46567;51.660;5.824;2023-02-11T01:17:58;103340.0;;;8.2;85.5
60719;BME280;46567;51.660;5.824;2023-02-11T01:22:58;103350.0;;;8.2;85.5
60719;BME280;46567;51.660;5.824;2023-02-11T01:27:58;103350.0;;;8.2;85.5
60719;BME280;46567;51.660;5.824;2023-02-11T01:32:58;103330.0;;;8.2;85.5
60719;BME280;46567;51.660;5.824;2023-02-11T01:37:58;103330.0;;;8.1;85.5
60719;BME280;46567;51.660;5.824;2023-02-11T01:42:58;103320.0;;;8.1;85.5
60719;BME280;46567;51.660;5.824;2023-02-11T01:47:58;103280.0;;;8.1;85.5
60719;BME280;46567;51.660;5.824;2023-02-11T01:52:58;103280.0;;;8.1;85.5
60719;BME280;46567;51.660;5.824;2023-02-11T01:57:59;103290.0;;;8.1;85.5
60719;BME280;46567;51.660;5.824;2023-02-11T02:03:05;103290.0;;;8.1;85.5
60719;BME280;46567;51.660;5.824;2023-02-11T02:08:12;103310.0;;;8.0;85.5
60719;BME280;46567;51.660;5.824;2023-02-11T02:12:58;103340.0;;;8.0;85.5
60719;BME280;46567;51.660;5.824;2023-02-11T02:18:00;103330.0;;;8.0;86.0
60719;BME280;46567;51.660;5.824;2023-02-11T02:25:10;103320.0;;;8.0;85.5
60719;BME280;46567;51.660;5.824;2023-02-11T02:32:15;103300.0;;;8.0;85.5
60719;BME280;46567;51.660;5.824;2023-02-11T02:35:50;103280.0;;;8.0;85.5
60719;BME280;46567;51.660;5.824;2023-02-11T02:39:38;103280.0;;;8.0;85.5
60719;BME280;46567;51.660;5.824;2023-02-11T02:42:58;103280.0;;;8.0;85.5
60719;BME280;46567;51.660;5.824;2023-02-11T02:47:58;103300.0;;;8.0;85.5
60719;BME280;46567;51.660;5.824;2023-02-11T02:53:43;103300.0;;;8.0;86.0
60719;BME280;46567;51.660;5.824;2023-02-11T02:59:54;103300.0;;;8.0;85.5
60719;BME280;46567;51.660;5.824;2023-02-11T03:04:34;103280.0;;;8.0;86.0
60719;BME280;46567;51.660;5.824;2023-02-11T03:08:46;103280.0;;;8.0;86.0
60719;BME280;46567;51.660;5.824;2023-02-11T03:12:58;103280.0;;;7.9;86.0
60719;BME280;46567;51.660;5.824;2023-02-11T03:18:02;103270.0;;;7.9;86.0
60719;BME280;46567;51.660;5.824;2023-02-11T03:23:06;103280.0;;;7.8;86.5
60719;BME280;46567;51.660;5.824;2023-02-11T03:28:12;103280.0;;;7.8;86.5
60719;BME280;46567;51.660;5.824;2023-02-11T03:33:06;103290.0;;;7.7;86.5
60719;BME280;46567;51.660;5.824;2023-02-11T03:37:59;103290.0;;;7.7;86.5
60719;BME280;46567;51.660;5.824;2023-02-11T03:42:59;103280.0;;;7.7;86.5
60719;BME280;46567;51.660;5.824;2023-02-11T03:48:01;103270.0;;;7.7;86.5
60719;BME280;46567;51.660;5.824;2023-02-11T03:52:59;103270.0;;;7.6;86.5
60719;BME280;46567;51.660;5.824;2023-02-11T03:57:58;103270.0;;;7.6;87.0
60719;BME280;46567;51.660;5.824;2023-02-11T04:02:58;103270.0;;;7.6;87.0
60719;BME280;46567;51.660;5.824;2023-02-11T04:07:58;103250.0;;;7.5;87.0
60719;BME280;46567;51.660;5.824;2023-02-11T04:12:58;103240.0;;;7.5;87.5
60719;BME280;46567;51.660;5.824;2023-02-11T04:17:58;103240.0;;;7.5;87.5
60719;BME280;46567;51.660;5.824;2023-02-11T04:22:58;103250.0;;;7.5;87.5
60719;BME280;46567;51.660;5.824;2023-02-11T04:27:58;103270.0;;;7.5;87.5
60719;BME280;46567;51.660;5.824;2023-02-11T04:32:58;103270.0;;;7.5;88.0
60719;BME280;46567;51.660;5.824;2023-02-11T04:37:58;103280.0;;;7.5;88.0
60719;BME280;46567;51.660;5.824;2023-02-11T04:42:58;103280.0;;;7.6;88.0
60719;BME280;46567;51.660;5.824;2023-02-11T04:47:58;103270.0;;;7.6;88.0
60719;BME280;46567;51.660;5.824;2023-02-11T04:52:58;103270.0;;;7.7;88.0
60719;BME280;46567;51.660;5.824;2023-02-11T04:57:58;103270.0;;;7.7;88.0
60719;BME280;46567;51.660;5.824;2023-02-11T05:02:58;103270.0;;;7.7;88.0
60719;BME280;46567;51.660;5.824;2023-02-11T05:07:58;103260.0;;;7.7;88.0
60719;BME280;46567;51.660;5.824;2023-02-11T05:12:58;103270.0;;;7.8;88.5
60719;BME280;46567;51.660;5.824;2023-02-11T05:17:58;103260.0;;;7.8;88.5
60719;BME280;46567;51.660;5.824;2023-02-11T05:22:58;103260.0;;;7.8;88.5
60719;BME280;46567;51.660;5.824;2023-02-11T05:27:58;103260.0;;;7.8;89.0
60719;BME280;46567;51.660;5.824;2023-02-11T05:32:58;103250.0;;;7.8;88.5
60719;BME280;46567;51.660;5.824;2023-02-11T05:37:58;103260.0;;;7.9;88.5
60719;BME280;46567;51.660;5.824;2023-02-11T05:42:58;103260.0;;;7.9;88.5
60719;BME280;46567;51.660;5.824;2023-02-11T05:47:58;103260.0;;;7.9;88.5
60719;BME280;46567;51.660;5.824;2023-02-11T05:52:58;103260.0;;;7.9;88.5
60719;BME280;46567;51.660;5.824;2023-02-11T05:57:58;103270.0;;;7.9;88.5
60719;BME280;46567;51.660;5.824;2023-02-11T06:02:58;103260.0;;;7.9;89.0
60719;BME280;46567;51.660;5.824;2023-02-11T06:07:58;103260.0;;;8.0;89.0
60719;BME280;46567;51.660;5.824;2023-02-11T06:12:58;103270.0;;;8.0;89.0
60719;BME280;46567;51.660;5.824;2023-02-11T06:17:58;103280.0;;;8.0;89.0
60719;BME280;46567;51.660;5.824;2023-02-11T06:22:58;103270.0;;;8.0;89.0
60719;BME280;46567;51.660;5.824;2023-02-11T06:27:58;103270.0;;;8.0;89.0
60719;BME280;46567;51.660;5.824;2023-02-11T06:32:58;103280.0;;;8.0;89.0
60719;BME280;46567;51.660;5.824;2023-02-11T06:37:58;103290.0;;;8.0;89.0
60719;BME280;46567;51.660;5.824;2023-02-11T06:42:58;103280.0;;;8.0;89.5
60719;BME280;46567;51.660;5.824;2023-02-11T06:47:58;103280.0;;;8.0;89.5
60719;BME280;46567;51.660;5.824;2023-02-11T06:52:58;103280.0;;;8.0;89.5
60719;BME280;46567;51.660;5.824;2023-02-11T06:57:58;103280.0;;;8.0;89.5
60719;BME280;46567;51.660;5.824;2023-02-11T07:02:58;103290.0;;;8.1;89.5
60719;BME280;46567;51.660;5.824;2023-02-11T07:07:58;103280.0;;;8.1;89.5
60719;BME280;46567;51.660;5.824;2023-02-11T07:12:58;103280.0;;;8.0;89.5
60719;BME280;46567;51.660;5.824;2023-02-11T07:17:58;103300.0;;;8.1;89.5
60719;BME280;46567;51.660;5.824;2023-02-11T07:22:58;103300.0;;;8.1;89.5
60719;BME280;46567;51.660;5.824;2023-02-11T07:27:58;103310.0;;;8.1;89.5
60719;BME280;46567;51.660;5.824;2023-02-11T07:32:58;103310.0;;;8.1;90.0
60719;BME280;46567;51.660;5.824;2023-02-11T07:37:58;103310.0;;;8.1;90.0
60719;BME280;46567;51.660;5.824;2023-02-11T07:42:59;103310.0;;;8.1;90.0
60719;BME280;46567;51.660;5.824;2023-02-11T07:47:58;103330.0;;;8.2;90.0
60719;BME280;46567;51.660;5.824;2023-02-11T07:52:58;103330.0;;;8.2;90.0
60719;BME280;46567;51.660;5.824;2023-02-11T07:57:58;103330.0;;;8.3;90.0
60719;BME280;46567;51.660;5.824;2023-02-11T08:02:58;103330.0;;;8.3;90.0
60719;BME280;46567;51.660;5.824;2023-02-11T08:07:58;103330.0;;;8.3;90.0
60719;BME280;46567;51.660;5.824;2023-02-11T08:12:58;103340.0;;;8.3;90.5
60719;BME280;46567;51.660;5.824;2023-02-11T08:17:58;103340.0;;;8.3;90.0
60719;BME280;46567;51.660;5.824;2023-02-11T08:22:58;103350.0;;;8.4;90.5
60719;BME280;46567;51.660;5.824;2023-02-11T08:27:58;103340.0;;;8.4;90.5
60719;BME280;46567;51.660;5.824;2023-02-11T08:32:58;103350.0;;;8.5;90.5
60719;BME280;46567;51.660;5.824;2023-02-11T08:37:58;103350.0;;;8.5;90.5
60719;BME280;46567;51.660;5.824;2023-02-11T08:42:58;103350.0;;;8.5;90.5
60719;BME280;46567;51.660;5.824;2023-02-11T08:47:58;103350.0;;;8.6;90.5
60719;BME280;46567;51.660;5.824;2023-02-11T08:52:58;103360.0;;;8.6;90.5
60719;BME280;46567;51.660;5.824;2023-02-11T08:57:58;103360.0;;;8.7;90.5
60719;BME280;46567;51.660;5.824;2023-02-11T09:02:58;103350.0;;;8.7;90.5
60719;BME280;46567;51.660;5.824;2023-02-11T09:07:58;103360.0;;;8.8;90.5
60719;BME280;46567;51.660;5.824;2023-02-11T09:12:58;103360.0;;;8.9;90.5
60719;BME280;46567;51.660;5.824;2023-02-11T09:17:58;103370.0;;;8.9;90.5
60719;BME280;46567;51.660;5.824;2023-02-11T09:22:58;103380.0;;;9.0;90.5
60719;BME280;46567;51.660;5.824;2023-02-11T09:27:58;103380.0;;;9.1;90.5
60719;BME280;46567;51.660;5.824;2023-02-11T09:32:58;103390.0;;;9.1;90.5
60719;BME280;46567;51.660;5.824;2023-02-11T09:37:58;103390.0;;;9.2;90.0
60719;BME280;46567;51.660;5.824;2023-02-11T09:43:22;103390.0;;;9.3;90.0
60719;BME280;46567;51.660;5.824;2023-02-11T09:48:00;103400.0;;;9.3;90.0
60719;BME280;46567;51.660;5.824;2023-02-11T09:53:06;103410.0;;;9.3;90.0
60719;BME280;46567;51.660;5.824;2023-02-11T09:58:02;103400.0;;;9.4;90.0
60719;BME280;46567;51.660;5.824;2023-02-11T10:03:02;103410.0;;;9.5;90.0
60719;BME280;46567;51.660;5.824;2023-02-11T10:08:49;103420.0;;;9.5;90.0
60719;BME280;46567;51.660;5.824;2023-02-11T10:14:48;103430.0;;;9.6;90.0
60719;BME280;46567;51.660;5.824;2023-02-11T10:20:32;103440.0;;;9.7;89.5
60719;BME280;46567;51.660;5.824;2023-02-11T10:23:45;103430.0;;;9.8;89.5
60719;BME280;46567;51.660;5.824;2023-02-11T10:27:58;103440.0;;;9.8;89.5
60719;BME280;46567;51.660;5.824;2023-02-11T10:33:14;103450.0;;;9.8;89.5
60719;BME280;46567;51.660;5.824;2023-02-11T10:37:58;103450.0;;;9.8;89.5
60719;BME280;46567;51.660;5.824;2023-02-11T10:43:00;103450.0;;;9.9;89.5
60719;BME280;46567;51.660;5.824;2023-02-11T10:47:58;103450.0;;;9.9;89.5
60719;BME280;46567;51.660;5.824;2023-02-11T10:53:10;103460.0;;;9.9;89.0
60719;BME280;46567;51.660;5.824;2023-02-11T10:58:00;103460.0;;;9.9;89.0
60719;BME280;46567;51.660;5.824;2023-02-11T11:03:01;103460.0;;;9.9;89.0
60719;BME280;46567;51.660;5.824;2023-02-11T11:07:59;103460.0;;;9.9;89.5
60719;BME280;46567;51.660;5.824;2023-02-11T11:12:58;103470.0;;;9.9;89.5
60719;BME280;46567;51.660;5.824;2023-02-11T11:18:25;103470.0;;;10.0;89.5
60719;BME280;46567;51.660;5.824;2023-02-11T11:23:11;103470.0;;;10.1;89.5
60719;BME280;46567;51.660;5.824;2023-02-11T11:27:59;103460.0;;;10.2;89.5
60719;BME280;46567;51.660;5.824;2023-02-11T11:32:59;103470.0;;;10.3;89.5
60719;BME280;46567;51.660;5.824;2023-02-11T11:38:02;103460.0;;;10.4;89.5
60719;BME280;46567;51.660;5.824;2023-02-11T11:43:02;103460.0;;;10.5;89.0
60719;BME280;46567;51.660;5.824;2023-02-11T11:48:02;103450.0;;;10.5;89.0
60719;BME280;46567;51.660;5.824;2023-02-11T11:52:59;103450.0;;;10.6;88.5
60719;BME280;46567;51.660;5.824;2023-02-11T11:57:58;103450.0;;;10.6;88.5
60719;BME280;46567;51.660;5.824;2023-02-11T12:04:18;103450.0;;;10.6;88.5
60719;BME280;46567;51.660;5.824;2023-02-11T12:10:03;103440.0;;;10.7;89.0
60719;BME280;46567;51.660;5.824;2023-02-11T12:15:33;103430.0;;;10.9;88.5
60719;BME280;46567;51.660;5.824;2023-02-11T12:21:55;103440.0;;;11.2;88.5
60719;BME280;46567;51.660;5.824;2023-02-11T12:27:11;103440.0;;;11.3;88.0
60719;BME280;46567;51.660;5.824;2023-02-11T12:32:57;103430.0;;;11.4;87.5
60719;BME280;46567;51.660;5.824;2023-02-11T12:39:47;103420.0;;;11.4;87.5
60719;BME280;46567;51.660;5.824;2023-02-11T12:43:44;103420.0;;;11.5;87.5
60719;BME280;46567;51.660;5.824;2023-02-11T12:43:56;103420.0;;;11.6;87.0
60719;BME280;46567;51.660;5.824;2023-02-11T12:49:02;103410.0;;;11.6;86.5
60719;BME280;46567;51.660;5.824;2023-02-11T12:54:23;103410.0;;;11.7;86.5
60719;BME280;46567;51.660;5.824;2023-02-11T12:57:59;103400.0;;;11.9;86.5
60719;BME280;46567;51.660;5.824;2023-02-11T13:03:19;103400.0;;;11.9;86.0
60719;BME280;46567;51.660;5.824;2023-02-11T13:08:01;103420.0;;;12.1;86.0
60719;BME280;46567;51.660;5.824;2023-02-11T13:12:59;103420.0;;;12.2;84.5
60719;BME280;46567;51.660;5.824;2023-02-11T13:18:09;103420.0;;;12.3;84.5
60719;BME280;46567;51.660;5.824;2023-02-11T13:23:01;103420.0;;;12.4;84.5
60719;BME280;46567;51.660;5.824;2023-02-11T13:28:24;103420.0;;;12.5;84.0
60719;BME280;46567;51.660;5.824;2023-02-11T13:33:16;103410.0;;;12.5;83.5
60719;BME280;46567;51.660;5.824;2023-02-11T13:37:59;103410.0;;;12.6;83.0
60719;BME280;46567;51.660;5.824;2023-02-11T13:42:59;103410.0;;;12.6;82.5
60719;BME280;46567;51.660;5.824;2023-02-11T13:48:01;103410.0;;;12.6;82.5
60719;BME280;46567;51.660;5.824;2023-02-11T13:52:59;103410.0;;;12.6;81.5
60719;BME280;46567;51.660;5.824;2023-02-11T13:58:26;103410.0;;;12.5;82.0
60719;BME280;46567;51.660;5.824;2023-02-11T14:03:22;103410.0;;;12.6;82.0
60719;BME280;46567;51.660;5.824;2023-02-11T14:08:16;103420.0;;;12.6;82.0
60719;BME280;46567;51.660;5.824;2023-02-11T14:13:05;103420.0;;;12.6;82.0
60719;BME280;46567;51.660;5.824;2023-02-11T14:17:58;103410.0;;;12.6;82.0
60719;BME280;46567;51.660;5.824;2023-02-11T14:22:58;103420.0;;;12.5;82.0
60719;BME280;46567;51.660;5.824;2023-02-11T14:28:00;103420.0;;;12.6;82.0
60719;BME280;46567;51.660;5.824;2023-02-11T14:33:48;103420.0;;;12.5;82.0
60719;BME280;46567;51.660;5.824;2023-02-11T14:39:00;103420.0;;;12.4;82.0
60719;BME280;46567;51.660;5.824;2023-02-11T14:43:04;103420.0;;;12.4;82.0
60719;BME280;46567;51.660;5.824;2023-02-11T14:48:05;103430.0;;;12.3;82.5
60719;BME280;46567;51.660;5.824;2023-02-11T14:52:59;103430.0;;;12.2;82.0
60719;BME280;46567;51.660;5.824;2023-02-11T14:58:04;103440.0;;;12.2;82.5
60719;BME280;46567;51.660;5.824;2023-02-11T15:02:58;103430.0;;;12.2;82.5
60719;BME280;46567;51.660;5.824;2023-02-11T15:08:00;103420.0;;;12.2;82.5
60719;BME280;46567;51.660;5.824;2023-02-11T15:13:01;103430.0;;;12.2;82.5
60719;BME280;46567;51.660;5.824;2023-02-11T15:18:00;103440.0;;;12.2;82.5
60719;BME280;46567;51.660;5.824;2023-02-11T15:23:00;103450.0;;;12.1;82.5
60719;BME280;46567;51.660;5.824;2023-02-11T15:27:58;103470.0;;;12.1;83.0
60719;BME280;46567;51.660;5.824;2023-02-11T15:32:59;103470.0;;;12.2;83.0
60719;BME280;46567;51.660;5.824;2023-02-11T15:37:58;103460.0;;;12.1;82.5
60719;BME280;46567;51.660;5.824;2023-02-11T15:42:59;103460.0;;;12.0;83.0
60719;BME280;46567;51.660;5.824;2023-02-11T15:48:01;103460.0;;;12.0;82.5
60719;BME280;46567;51.660;5.824;2023-02-11T15:53:13;103460.0;;;11.9;82.5
60719;BME280;46567;51.660;5.824;2023-02-11T15:57:59;103470.0;;;11.9;82.5
60719;BME280;46567;51.660;5.824;2023-02-11T16:02:58;103470.0;;;11.8;82.5
60719;BME280;46567;51.660;5.824;2023-02-11T16:07:59;103460.0;;;11.8;82.5
60719;BME280;46567;51.660;5.824;2023-02-11T16:13:03;103460.0;;;11.8;82.5
60719;BME280;46567;51.660;5.824;2023-02-11T16:17:58;103460.0;;;11.7;82.5
60719;BME280;46567;51.660;5.824;2023-02-11T16:22:58;103460.0;;;11.7;82.5
60719;BME280;46567;51.660;5.824;2023-02-11T16:27:58;103460.0;;;11.6;83.0
60719;BME280;46567;51.660;5.824;2023-02-11T16:32:58;103470.0;;;11.6;83.0
60719;BME280;46567;51.660;5.824;2023-02-11T16:37:58;103470.0;;;11.5;82.5
60719;BME280;46567;51.660;5.824;2023-02-11T16:42:58;103470.0;;;11.5;83.5
60719;BME280;46567;51.660;5.824;2023-02-11T16:47:58;103470.0;;;11.4;83.0
60719;BME280;46567;51.660;5.824;2023-02-11T16:52:58;103470.0;;;11.3;83.5
60719;BME280;46567;51.660;5.824;2023-02-11T16:57:58;103490.0;;;11.3;83.5
60719;BME280;46567;51.660;5.824;2023-02-11T17:02:58;103480.0;;;11.3;83.5
60719;BME280;46567;51.660;5.824;2023-02-11T17:07:58;103480.0;;;11.2;83.5
60719;BME280;46567;51.660;5.824;2023-02-11T17:12:58;103490.0;;;11.2;84.0
60719;BME280;46567;51.660;5.824;2023-02-11T17:17:58;103510.0;;;11.1;84.0
60719;BME280;46567;51.660;5.824;2023-02-11T17:22:58;103520.0;;;11.1;84.0
60719;BME280;46567;51.660;5.824;2023-02-11T17:27:58;103520.0;;;11.0;84.5
60719;BME280;46567;51.660;5.824;2023-02-11T17:32:58;103520.0;;;11.0;84.5
60719;BME280;46567;51.660;5.824;2023-02-11T17:37:58;103520.0;;;10.9;84.5
60719;BME280;46567;51.660;5.824;2023-02-11T17:42:58;103530.0;;;10.8;85.0
60719;BME280;46567;51.660;5.824;2023-02-11T17:47:58;103530.0;;;10.8;85.0
60719;BME280;46567;51.660;5.824;2023-02-11T17:52:58;103530.0;;;10.7;85.0
60719;BME280;46567;51.660;5.824;2023-02-11T17:57:58;103540.0;;;10.6;85.5
60719;BME280;46567;51.660;5.824;2023-02-11T18:02:58;103540.0;;;10.6;85.5
60719;BME280;46567;51.660;5.824;2023-02-11T18:07:58;103540.0;;;10.5;86.0
60719;BME280;46567;51.660;5.824;2023-02-11T18:12:58;103550.0;;;10.5;86.0
60719;BME280;46567;51.660;5.824;2023-02-11T18:17:58;103550.0;;;10.4;86.0
60719;BME280;46567;51.660;5.824;2023-02-11T18:22:58;103560.0;;;10.3;86.0
60719;BME280;46567;51.660;5.824;2023-02-11T18:27:58;103570.0;;;10.3;86.5
60719;BME280;46567;51.660;5.824;2023-02-11T18:32:58;103570.0;;;10.3;86.5
60719;BME280;46567;51.660;5.824;2023-02-11T18:37:58;103570.0;;;10.3;87.0
60719;BME280;46567;51.660;5.824;2023-02-11T18:42:58;103570.0;;;10.2;87.0
60719;BME280;46567;51.660;5.824;2023-02-11T18:47:58;103570.0;;;10.2;87.0
60719;BME280;46567;51.660;5.824;2023-02-11T18:52:58;103580.0;;;10.3;87.5
60719;BME280;46567;51.660;5.824;2023-02-11T18:57:58;103580.0;;;10.3;87.5
60719;BME280;46567;51.660;5.824;2023-02-11T19:02:58;103580.0;;;10.3;87.5
60719;BME280;46567;51.660;5.824;2023-02-11T19:07:59;103580.0;;;10.3;87.5
60719;BME280;46567;51.660;5.824;2023-02-11T19:12:58;103580.0;;;10.3;87.5
60719;BME280;46567;51.660;5.824;2023-02-11T19:17:58;103590.0;;;10.3;87.5
60719;BME280;46567;51.660;5.824;2023-02-11T19:22:58;103600.0;;;10.2;87.5
60719;BME280;46567;51.660;5.824;2023-02-11T19:27:58;103600.0;;;10.2;88.0
60719;BME280;46567;51.660;5.824;2023-02-11T19:32:58;103610.0;;;10.2;88.0
60719;BME280;46567;51.660;5.824;2023-02-11T19:37:58;103600.0;;;10.2;88.0
60719;BME280;46567;51.660;5.824;2023-02-11T19:42:58;103600.0;;;10.2;88.0
60719;BME280;46567;51.660;5.824;2023-02-11T19:47:58;103620.0;;;10.3;88.0
60719;BME280;46567;51.660;5.824;2023-02-11T19:52:58;103620.0;;;10.3;88.0
60719;BME280;46567;51.660;5.824;2023-02-11T19:57:58;103630.0;;;10.3;88.5
60719;BME280;46567;51.660;5.824;2023-02-11T20:02:58;103630.0;;;10.2;88.0
60719;BME280;46567;51.660;5.824;2023-02-11T20:07:58;103640.0;;;10.2;88.5
60719;BME280;46567;51.660;5.824;2023-02-11T20:12:58;103650.0;;;10.3;88.5
60719;BME280;46567;51.660;5.824;2023-02-11T20:17:58;103650.0;;;10.3;88.5
60719;BME280;46567;51.660;5.824;2023-02-11T20:22:58;103660.0;;;10.3;88.5
60719;BME280;46567;51.660;5.824;2023-02-11T20:27:58;103660.0;;;10.3;88.0
60719;BME280;46567;51.660;5.824;2023-02-11T20:32:58;103660.0;;;10.2;88.0
60719;BME280;46567;51.660;5.824;2023-02-11T20:37:58;103660.0;;;10.2;88.0
60719;BME280;46567;51.660;5.824;2023-02-11T20:42:58;103670.0;;;10.2;88.5
60719;BME280;46567;51.660;5.824;2023-02-11T20:47:58;103670.0;;;10.2;88.0
60719;BME280;46567;51.660;5.824;2023-02-11T20:52:58;103670.0;;;10.2;88.5
60719;BME280;46567;51.660;5.824;2023-02-11T20:57:58;103680.0;;;10.2;88.5
60719;BME280;46567;51.660;5.824;2023-02-11T21:02:58;103680.0;;;10.2;88.5
60719;BME280;46567;51.660;5.824;2023-02-11T21:07:58;103690.0;;;10.2;88.0
60719;BME280;46567;51.660;5.824;2023-02-11T21:12:58;103700.0;;;10.2;88.0
60719;BME280;46567;51.660;5.824;2023-02-11T21:17:58;103700.0;;;10.2;88.5
60719;BME280;46567;51.660;5.824;2023-02-11T21:22:58;103700.0;;;10.2;88.5
60719;BME280;46567;51.660;5.824;2023-02-11T21:27:58;103700.0;;;10.1;88.0
60719;BME280;46567;51.660;5.824;2023-02-11T21:32:58;103700.0;;;10.1;88.5
60719;BME280;46567;51.660;5.824;2023-02-11T21:37:58;103720.0;;;10.1;88.5
60719;BME280;46567;51.660;5.824;2023-02-11T21:42:58;103710.0;;;10.1;88.5
60719;BME280;46567;51.660;5.824;2023-02-11T21:47:58;103720.0;;;10.1;88.5
60719;BME280;46567;51.660;5.824;2023-02-11T21:52:58;103730.0;;;10.1;88.5
60719;BME280;46567;51.660;5.824;2023-02-11T21:57:58;103730.0;;;10.1;88.5
60719;BME280;46567;51.660;5.824;2023-02-11T22:02:58;103730.0;;;10.0;88.5
60719;BME280;46567;51.660;5.824;2023-02-11T22:07:58;103730.0;;;10.0;88.0
60719;BME280;46567;51.660;5.824;2023-02-11T22:12:58;103730.0;;;10.0;88.5
60719;BME280;46567;51.660;5.824;2023-02-11T22:17:58;103730.0;;;10.0;88.5
60719;BME280;46567;51.660;5.824;2023-02-11T22:22:58;103720.0;;;10.0;88.5
60719;BME280;46567;51.660;5.824;2023-02-11T22:27:58;103720.0;;;9.9;88.5
60719;BME280;46567;51.660;5.824;2023-02-11T22:32:58;103720.0;;;9.9;88.5
60719;BME280;46567;51.660;5.824;2023-02-11T22:37:58;103730.0;;;9.9;88.5
60719;BME280;46567;51.660;5.824;2023-02-11T22:42:58;103740.0;;;9.9;88.5
60719;BME280;46567;51.660;5.824;2023-02-11T22:47:58;103730.0;;;9.9;88.5
60719;BME280;46567;51.660;5.824;2023-02-11T22:52:58;103730.0;;;9.9;88.5
60719;BME280;46567;51.660;5.824;2023-02-11T22:57:58;103730.0;;;9.8;88.5
60719;BME280;46567;51.660;5.824;2023-02-11T23:02:58;103740.0;;;9.8;88.5
60719;BME280;46567;51.660;5.824;2023-02-11T23:07:58;103730.0;;;9.8;88.5
60719;BME280;46567;51.660;5.824;2023-02-11T23:12:58;103740.0;;;9.8;88.5
60719;BME280;46567;51.660;5.824;2023-02-11T23:17:58;103750.0;;;9.8;88.5
60719;BME280;46567;51.660;5.824;2023-02-11T23:22:58;103740.0;;;9.8;88.0
60719;BME280;46567;51.660;5.824;2023-02-11T23:27:58;103740.0;;;9.8;88.0
60719;BME280;46567;51.660;5.824;2023-02-11T23:32:58;103740.0;;;9.8;88.0
60719;BME280;46567;51.660;5.824;2023-02-11T23:37:58;103740.0;;;9.8;87.5
60719;BME280;46567;51.660;5.824;2023-02-11T23:42:58;103740.0;;;9.8;87.5
60719;BME280;46567;51.660;5.824;2023-02-11T23:47:58;103750.0;;;9.8;87.0
60719;BME280;46567;51.660;5.824;2023-02-11T23:52:58;103750.0;;;9.8;87.0
60719;BME280;46567;51.660;5.824;2023-02-11T23:57:58;103760.0;;;9.8;87.0
